Airport View

Enter AWOS ICAO identifier for current METAR.

ex. KFNL

KAQW 202352Z AUTO 00000KT 10SM CLR 13/11 A3018 RMK AO2 SLP225 T01280111 10233 20128 53010

21 Sep 2019 00:25

Frequency: 134.775

Phone: 413-664-6658

Other Area AWOS: KDDH - KPSF - KALB - KSCH

TAF KPSF 202340Z 2100/2124 24003KT P6SM FEW250 FM210600 00000KT 2SM BR FEW150 TEMPO 2108/2112 1/4SM FG VV001 FM211300 26003KT P6SM FEW150